sensor_id;sensor_type;location;lat;lon;timestamp;P1;durP1;ratioP1;P2;durP2;ratioP2
13208;SDS011;6669;42.678;23.332;2023-05-07T00:00:00;9.73;;;8.63;;
13208;SDS011;6669;42.678;23.332;2023-05-07T00:02:29;9.23;;;7.83;;
13208;SDS011;6669;42.678;23.332;2023-05-07T00:04:57;9.13;;;7.93;;
13208;SDS011;6669;42.678;23.332;2023-05-07T00:07:27;9.70;;;7.80;;
13208;SDS011;6669;42.678;23.332;2023-05-07T00:09:55;11.13;;;7.70;;
13208;SDS011;6669;42.678;23.332;2023-05-07T00:12:23;10.60;;;7.97;;
13208;SDS011;6669;42.678;23.332;2023-05-07T00:14:51;11.50;;;7.60;;
13208;SDS011;6669;42.678;23.332;2023-05-07T00:17:19;11.20;;;8.53;;
13208;SDS011;6669;42.678;23.332;2023-05-07T00:19:47;9.40;;;7.80;;
13208;SDS011;6669;42.678;23.332;2023-05-07T00:22:15;8.13;;;7.20;;
13208;SDS011;6669;42.678;23.332;2023-05-07T00:24:45;10.33;;;8.13;;
13208;SDS011;6669;42.678;23.332;2023-05-07T00:27:13;10.50;;;7.70;;
13208;SDS011;6669;42.678;23.332;2023-05-07T00:29:41;10.03;;;7.53;;
13208;SDS011;6669;42.678;23.332;2023-05-07T00:32:08;10.77;;;8.07;;
13208;SDS011;6669;42.678;23.332;2023-05-07T00:34:36;9.03;;;7.60;;
13208;SDS011;6669;42.678;23.332;2023-05-07T00:37:05;9.13;;;7.80;;
13208;SDS011;6669;42.678;23.332;2023-05-07T00:39:33;9.10;;;6.93;;
13208;SDS011;6669;42.678;23.332;2023-05-07T00:42:03;9.13;;;8.03;;
13208;SDS011;6669;42.678;23.332;2023-05-07T00:44:31;10.13;;;7.17;;
13208;SDS011;6669;42.678;23.332;2023-05-07T00:46:59;12.43;;;7.67;;
13208;SDS011;6669;42.678;23.332;2023-05-07T00:49:34;9.37;;;7.93;;
13208;SDS011;6669;42.678;23.332;2023-05-07T00:52:05;9.73;;;8.10;;
13208;SDS011;6669;42.678;23.332;2023-05-07T00:54:34;8.83;;;7.97;;
13208;SDS011;6669;42.678;23.332;2023-05-07T00:57:03;9.23;;;7.57;;
13208;SDS011;6669;42.678;23.332;2023-05-07T00:59:32;9.17;;;7.80;;
13208;SDS011;6669;42.678;23.332;2023-05-07T01:02:01;10.93;;;7.67;;
13208;SDS011;6669;42.678;23.332;2023-05-07T01:04:29;8.37;;;7.20;;
13208;SDS011;6669;42.678;23.332;2023-05-07T01:06:57;8.93;;;7.73;;
13208;SDS011;6669;42.678;23.332;2023-05-07T01:09:28;9.20;;;7.70;;
13208;SDS011;6669;42.678;23.332;2023-05-07T01:11:56;10.27;;;7.97;;
13208;SDS011;6669;42.678;23.332;2023-05-07T01:14:27;9.87;;;7.27;;
13208;SDS011;6669;42.678;23.332;2023-05-07T01:16:55;7.83;;;7.07;;
13208;SDS011;6669;42.678;23.332;2023-05-07T01:19:25;9.43;;;7.07;;
13208;SDS011;6669;42.678;23.332;2023-05-07T01:21:53;8.20;;;7.27;;
13208;SDS011;6669;42.678;23.332;2023-05-07T01:24:30;8.10;;;6.30;;
13208;SDS011;6669;42.678;23.332;2023-05-07T01:26:59;8.77;;;6.90;;
13208;SDS011;6669;42.678;23.332;2023-05-07T01:29:27;8.30;;;6.90;;
13208;SDS011;6669;42.678;23.332;2023-05-07T01:31:56;6.37;;;5.63;;
13208;SDS011;6669;42.678;23.332;2023-05-07T01:34:26;5.83;;;4.80;;
13208;SDS011;6669;42.678;23.332;2023-05-07T01:36:57;6.27;;;4.70;;
13208;SDS011;6669;42.678;23.332;2023-05-07T01:39:27;6.60;;;5.60;;
13208;SDS011;6669;42.678;23.332;2023-05-07T01:41:58;5.40;;;4.90;;
13208;SDS011;6669;42.678;23.332;2023-05-07T01:44:26;5.27;;;4.77;;
13208;SDS011;6669;42.678;23.332;2023-05-07T01:46:55;5.27;;;4.63;;
13208;SDS011;6669;42.678;23.332;2023-05-07T01:49:24;5.37;;;4.80;;
13208;SDS011;6669;42.678;23.332;2023-05-07T01:51:53;6.00;;;5.40;;
13208;SDS011;6669;42.678;23.332;2023-05-07T01:54:24;7.93;;;5.30;;
13208;SDS011;6669;42.678;23.332;2023-05-07T01:56:54;5.77;;;5.17;;
13208;SDS011;6669;42.678;23.332;2023-05-07T01:59:24;7.20;;;4.60;;
13208;SDS011;6669;42.678;23.332;2023-05-07T02:01:52;6.33;;;4.23;;
13208;SDS011;6669;42.678;23.332;2023-05-07T02:04:20;5.03;;;4.53;;
13208;SDS011;6669;42.678;23.332;2023-05-07T02:06:48;5.40;;;4.50;;
13208;SDS011;6669;42.678;23.332;2023-05-07T02:09:16;4.83;;;4.33;;
13208;SDS011;6669;42.678;23.332;2023-05-07T02:11:45;5.33;;;4.63;;
13208;SDS011;6669;42.678;23.332;2023-05-07T02:14:12;5.13;;;4.63;;
13208;SDS011;6669;42.678;23.332;2023-05-07T02:16:43;5.60;;;4.47;;
13208;SDS011;6669;42.678;23.332;2023-05-07T02:19:11;4.57;;;4.17;;
13208;SDS011;6669;42.678;23.332;2023-05-07T02:21:39;4.60;;;4.20;;
13208;SDS011;6669;42.678;23.332;2023-05-07T02:24:06;5.60;;;4.87;;
13208;SDS011;6669;42.678;23.332;2023-05-07T02:26:35;5.87;;;4.90;;
13208;SDS011;6669;42.678;23.332;2023-05-07T02:29:03;5.87;;;4.17;;
13208;SDS011;6669;42.678;23.332;2023-05-07T02:31:30;5.20;;;4.37;;
13208;SDS011;6669;42.678;23.332;2023-05-07T02:34:01;4.47;;;4.07;;
13208;SDS011;6669;42.678;23.332;2023-05-07T02:36:30;5.03;;;4.50;;
13208;SDS011;6669;42.678;23.332;2023-05-07T02:38:58;5.20;;;4.70;;
13208;SDS011;6669;42.678;23.332;2023-05-07T02:41:26;6.23;;;4.67;;
13208;SDS011;6669;42.678;23.332;2023-05-07T02:43:54;5.77;;;5.27;;
13208;SDS011;6669;42.678;23.332;2023-05-07T02:46:22;4.83;;;4.33;;
13208;SDS011;6669;42.678;23.332;2023-05-07T02:48:50;5.67;;;5.17;;
13208;SDS011;6669;42.678;23.332;2023-05-07T02:51:20;6.83;;;4.83;;
13208;SDS011;6669;42.678;23.332;2023-05-07T02:53:51;5.80;;;5.20;;
13208;SDS011;6669;42.678;23.332;2023-05-07T02:56:19;7.83;;;5.23;;
13208;SDS011;6669;42.678;23.332;2023-05-07T02:58:47;5.77;;;5.00;;
13208;SDS011;6669;42.678;23.332;2023-05-07T03:01:15;6.30;;;5.53;;
13208;SDS011;6669;42.678;23.332;2023-05-07T03:03:43;5.60;;;5.03;;
13208;SDS011;6669;42.678;23.332;2023-05-07T03:06:12;5.90;;;5.40;;
13208;SDS011;6669;42.678;23.332;2023-05-07T03:08:41;6.10;;;5.50;;
13208;SDS011;6669;42.678;23.332;2023-05-07T03:11:09;6.23;;;5.37;;
13208;SDS011;6669;42.678;23.332;2023-05-07T03:13:37;5.30;;;4.80;;
13208;SDS011;6669;42.678;23.332;2023-05-07T03:16:05;6.47;;;5.00;;
13208;SDS011;6669;42.678;23.332;2023-05-07T03:18:34;6.60;;;5.53;;
13208;SDS011;6669;42.678;23.332;2023-05-07T03:21:02;6.80;;;5.43;;
13208;SDS011;6669;42.678;23.332;2023-05-07T03:23:30;5.83;;;5.30;;
13208;SDS011;6669;42.678;23.332;2023-05-07T03:25:59;6.37;;;5.43;;
13208;SDS011;6669;42.678;23.332;2023-05-07T03:28:27;7.43;;;6.13;;
13208;SDS011;6669;42.678;23.332;2023-05-07T03:30:55;6.10;;;5.50;;
13208;SDS011;6669;42.678;23.332;2023-05-07T03:33:23;6.00;;;5.40;;
13208;SDS011;6669;42.678;23.332;2023-05-07T03:35:51;7.33;;;6.50;;
13208;SDS011;6669;42.678;23.332;2023-05-07T03:38:19;7.17;;;6.33;;
13208;SDS011;6669;42.678;23.332;2023-05-07T03:40:47;6.60;;;6.00;;
13208;SDS011;6669;42.678;23.332;2023-05-07T03:43:16;6.80;;;6.20;;
13208;SDS011;6669;42.678;23.332;2023-05-07T03:45:44;6.50;;;5.90;;
13208;SDS011;6669;42.678;23.332;2023-05-07T03:48:12;7.00;;;6.30;;
13208;SDS011;6669;42.678;23.332;2023-05-07T03:50:40;10.33;;;6.97;;
13208;SDS011;6669;42.678;23.332;2023-05-07T03:53:08;7.83;;;7.03;;
13208;SDS011;6669;42.678;23.332;2023-05-07T03:55:36;7.33;;;6.33;;
13208;SDS011;6669;42.678;23.332;2023-05-07T03:58:04;7.00;;;6.30;;
13208;SDS011;6669;42.678;23.332;2023-05-07T04:00:33;7.23;;;6.17;;
13208;SDS011;6669;42.678;23.332;2023-05-07T04:03:04;7.00;;;6.07;;
13208;SDS011;6669;42.678;23.332;2023-05-07T04:05:33;7.80;;;6.37;;
13208;SDS011;6669;42.678;23.332;2023-05-07T04:08:01;8.53;;;6.43;;
13208;SDS011;6669;42.678;23.332;2023-05-07T04:10:30;8.37;;;6.60;;
13208;SDS011;6669;42.678;23.332;2023-05-07T04:12:57;8.00;;;6.67;;
13208;SDS011;6669;42.678;23.332;2023-05-07T04:15:25;7.17;;;6.47;;
13208;SDS011;6669;42.678;23.332;2023-05-07T04:17:55;7.40;;;6.60;;
13208;SDS011;6669;42.678;23.332;2023-05-07T04:20:22;8.83;;;6.73;;
13208;SDS011;6669;42.678;23.332;2023-05-07T04:22:51;7.33;;;6.63;;
13208;SDS011;6669;42.678;23.332;2023-05-07T04:25:19;8.23;;;6.33;;
13208;SDS011;6669;42.678;23.332;2023-05-07T04:27:46;7.23;;;6.53;;
13208;SDS011;6669;42.678;23.332;2023-05-07T04:30:15;7.00;;;6.30;;
13208;SDS011;6669;42.678;23.332;2023-05-07T04:32:43;8.37;;;6.60;;
13208;SDS011;6669;42.678;23.332;2023-05-07T04:35:13;7.83;;;6.37;;
13208;SDS011;6669;42.678;23.332;2023-05-07T04:37:41;9.30;;;7.13;;
13208;SDS011;6669;42.678;23.332;2023-05-07T04:40:09;8.70;;;7.30;;
13208;SDS011;6669;42.678;23.332;2023-05-07T04:42:37;10.00;;;7.40;;
13208;SDS011;6669;42.678;23.332;2023-05-07T04:45:06;13.87;;;7.13;;
13208;SDS011;6669;42.678;23.332;2023-05-07T04:47:34;10.20;;;6.97;;
13208;SDS011;6669;42.678;23.332;2023-05-07T04:50:03;8.23;;;7.33;;
13208;SDS011;6669;42.678;23.332;2023-05-07T04:52:32;7.97;;;7.13;;
13208;SDS011;6669;42.678;23.332;2023-05-07T04:55:00;8.57;;;7.17;;
13208;SDS011;6669;42.678;23.332;2023-05-07T04:57:28;8.80;;;7.23;;
13208;SDS011;6669;42.678;23.332;2023-05-07T04:59:57;9.03;;;7.90;;
13208;SDS011;6669;42.678;23.332;2023-05-07T05:02:24;10.53;;;8.13;;
13208;SDS011;6669;42.678;23.332;2023-05-07T05:04:52;9.57;;;7.70;;
13208;SDS011;6669;42.678;23.332;2023-05-07T05:07:20;8.80;;;7.03;;
13208;SDS011;6669;42.678;23.332;2023-05-07T05:09:50;8.60;;;7.63;;
13208;SDS011;6669;42.678;23.332;2023-05-07T05:12:18;8.90;;;7.87;;
13208;SDS011;6669;42.678;23.332;2023-05-07T05:14:46;8.00;;;7.20;;
13208;SDS011;6669;42.678;23.332;2023-05-07T05:17:14;9.30;;;7.23;;
13208;SDS011;6669;42.678;23.332;2023-05-07T05:19:42;8.87;;;7.57;;
13208;SDS011;6669;42.678;23.332;2023-05-07T05:22:09;7.57;;;6.83;;
13208;SDS011;6669;42.678;23.332;2023-05-07T05:24:37;9.17;;;7.23;;
13208;SDS011;6669;42.678;23.332;2023-05-07T05:27:07;8.93;;;7.20;;
13208;SDS011;6669;42.678;23.332;2023-05-07T05:29:35;8.43;;;7.10;;
13208;SDS011;6669;42.678;23.332;2023-05-07T05:32:03;7.40;;;6.60;;
13208;SDS011;6669;42.678;23.332;2023-05-07T05:34:31;8.45;;;6.72;;
13208;SDS011;6669;42.678;23.332;2023-05-07T05:36:59;15.70;;;13.40;;
13208;SDS011;6669;42.678;23.332;2023-05-07T05:39:35;7.97;;;7.18;;
13208;SDS011;6669;42.678;23.332;2023-05-07T05:42:09;8.30;;;7.13;;
13208;SDS011;6669;42.678;23.332;2023-05-07T05:44:37;8.20;;;7.40;;
13208;SDS011;6669;42.678;23.332;2023-05-07T05:47:05;8.15;;;7.35;;
13208;SDS011;6669;42.678;23.332;2023-05-07T05:49:33;7.22;;;6.50;;
13208;SDS011;6669;42.678;23.332;2023-05-07T05:52:01;7.93;;;6.90;;
13208;SDS011;6669;42.678;23.332;2023-05-07T05:54:29;9.95;;;6.80;;
13208;SDS011;6669;42.678;23.332;2023-05-07T05:56:57;7.78;;;6.78;;
13208;SDS011;6669;42.678;23.332;2023-05-07T05:59:27;7.70;;;6.90;;
13208;SDS011;6669;42.678;23.332;2023-05-07T06:01:55;8.63;;;7.30;;
13208;SDS011;6669;42.678;23.332;2023-05-07T06:04:23;8.25;;;7.43;;
13208;SDS011;6669;42.678;23.332;2023-05-07T06:06:51;7.57;;;6.88;;
13208;SDS011;6669;42.678;23.332;2023-05-07T06:09:19;7.82;;;7.03;;
13208;SDS011;6669;42.678;23.332;2023-05-07T06:11:47;7.63;;;6.47;;
13208;SDS011;6669;42.678;23.332;2023-05-07T06:14:16;9.50;;;7.70;;
13208;SDS011;6669;42.678;23.332;2023-05-07T06:16:45;9.95;;;7.57;;
13208;SDS011;6669;42.678;23.332;2023-05-07T06:19:15;7.97;;;7.03;;
13208;SDS011;6669;42.678;23.332;2023-05-07T06:21:51;10.48;;;9.10;;
13208;SDS011;6669;42.678;23.332;2023-05-07T06:24:19;7.80;;;7.00;;
13208;SDS011;6669;42.678;23.332;2023-05-07T06:26:47;8.70;;;7.45;;
13208;SDS011;6669;42.678;23.332;2023-05-07T06:29:15;9.10;;;7.07;;
13208;SDS011;6669;42.678;23.332;2023-05-07T06:31:43;9.35;;;6.95;;
13208;SDS011;6669;42.678;23.332;2023-05-07T06:34:13;8.48;;;7.10;;
13208;SDS011;6669;42.678;23.332;2023-05-07T06:36:41;9.95;;;7.43;;
13208;SDS011;6669;42.678;23.332;2023-05-07T06:39:09;7.93;;;7.07;;
13208;SDS011;6669;42.678;23.332;2023-05-07T06:41:37;7.32;;;6.57;;
13208;SDS011;6669;42.678;23.332;2023-05-07T06:44:05;11.25;;;7.30;;
13208;SDS011;6669;42.678;23.332;2023-05-07T06:46:35;7.80;;;6.47;;
13208;SDS011;6669;42.678;23.332;2023-05-07T06:49:03;8.57;;;6.97;;
13208;SDS011;6669;42.678;23.332;2023-05-07T06:51:32;9.77;;;6.88;;
13208;SDS011;6669;42.678;23.332;2023-05-07T06:54:00;8.25;;;7.47;;
13208;SDS011;6669;42.678;23.332;2023-05-07T06:56:30;8.70;;;6.88;;
13208;SDS011;6669;42.678;23.332;2023-05-07T06:58:59;7.40;;;6.70;;
13208;SDS011;6669;42.678;23.332;2023-05-07T07:01:27;13.30;;;10.73;;
13208;SDS011;6669;42.678;23.332;2023-05-07T07:03:55;8.27;;;7.45;;
13208;SDS011;6669;42.678;23.332;2023-05-07T07:06:23;7.50;;;6.60;;
13208;SDS011;6669;42.678;23.332;2023-05-07T07:08:53;6.70;;;6.10;;
13208;SDS011;6669;42.678;23.332;2023-05-07T07:11:21;7.68;;;5.88;;
13208;SDS011;6669;42.678;23.332;2023-05-07T07:13:48;8.65;;;5.93;;
13208;SDS011;6669;42.678;23.332;2023-05-07T07:16:17;7.18;;;5.75;;
13208;SDS011;6669;42.678;23.332;2023-05-07T07:18:45;6.15;;;5.40;;
13208;SDS011;6669;42.678;23.332;2023-05-07T07:21:13;5.97;;;5.45;;
13208;SDS011;6669;42.678;23.332;2023-05-07T07:23:41;7.00;;;5.80;;
13208;SDS011;6669;42.678;23.332;2023-05-07T07:26:10;5.97;;;5.38;;
13208;SDS011;6669;42.678;23.332;2023-05-07T07:28:44;6.18;;;5.43;;
13208;SDS011;6669;42.678;23.332;2023-05-07T07:31:12;6.20;;;5.68;;
13208;SDS011;6669;42.678;23.332;2023-05-07T07:33:41;6.45;;;5.85;;
13208;SDS011;6669;42.678;23.332;2023-05-07T07:36:09;6.35;;;5.75;;
13208;SDS011;6669;42.678;23.332;2023-05-07T07:38:37;6.70;;;6.00;;
13208;SDS011;6669;42.678;23.332;2023-05-07T07:41:05;5.88;;;5.28;;
13208;SDS011;6669;42.678;23.332;2023-05-07T07:43:37;8.50;;;6.00;;
13208;SDS011;6669;42.678;23.332;2023-05-07T07:46:05;8.20;;;5.75;;
13208;SDS011;6669;42.678;23.332;2023-05-07T07:48:33;6.88;;;6.18;;
13208;SDS011;6669;42.678;23.332;2023-05-07T07:51:01;8.82;;;6.47;;
13208;SDS011;6669;42.678;23.332;2023-05-07T07:53:29;6.75;;;5.93;;
13208;SDS011;6669;42.678;23.332;2023-05-07T07:55:57;8.07;;;6.40;;
13208;SDS011;6669;42.678;23.332;2023-05-07T07:58:25;7.63;;;6.32;;
13208;SDS011;6669;42.678;23.332;2023-05-07T08:00:54;10.35;;;6.57;;
13208;SDS011;6669;42.678;23.332;2023-05-07T08:03:22;9.27;;;6.97;;
13208;SDS011;6669;42.678;23.332;2023-05-07T08:05:50;9.85;;;6.57;;
13208;SDS011;6669;42.678;23.332;2023-05-07T08:08:18;7.25;;;6.30;;
13208;SDS011;6669;42.678;23.332;2023-05-07T08:10:46;8.18;;;6.03;;
13208;SDS011;6669;42.678;23.332;2023-05-07T08:13:17;9.38;;;6.55;;
13208;SDS011;6669;42.678;23.332;2023-05-07T08:15:45;8.15;;;6.47;;
13208;SDS011;6669;42.678;23.332;2023-05-07T08:18:14;7.35;;;6.18;;
13208;SDS011;6669;42.678;23.332;2023-05-07T08:20:42;7.07;;;6.13;;
13208;SDS011;6669;42.678;23.332;2023-05-07T08:23:10;7.75;;;6.65;;
13208;SDS011;6669;42.678;23.332;2023-05-07T08:25:38;6.18;;;5.57;;
13208;SDS011;6669;42.678;23.332;2023-05-07T08:28:06;6.57;;;5.82;;
13208;SDS011;6669;42.678;23.332;2023-05-07T08:30:35;6.18;;;5.57;;
13208;SDS011;6669;42.678;23.332;2023-05-07T08:33:03;7.22;;;5.22;;
13208;SDS011;6669;42.678;23.332;2023-05-07T08:35:33;5.57;;;4.70;;
13208;SDS011;6669;42.678;23.332;2023-05-07T08:38:01;6.05;;;5.30;;
13208;SDS011;6669;42.678;23.332;2023-05-07T08:40:29;6.15;;;5.00;;
13208;SDS011;6669;42.678;23.332;2023-05-07T08:43:05;4.43;;;4.03;;
13208;SDS011;6669;42.678;23.332;2023-05-07T08:45:34;5.22;;;4.72;;
13208;SDS011;6669;42.678;23.332;2023-05-07T08:48:03;7.75;;;6.88;;
13208;SDS011;6669;42.678;23.332;2023-05-07T08:50:37;6.93;;;5.15;;
13208;SDS011;6669;42.678;23.332;2023-05-07T08:53:05;4.68;;;4.15;;
13208;SDS011;6669;42.678;23.332;2023-05-07T08:55:33;4.68;;;3.80;;
13208;SDS011;6669;42.678;23.332;2023-05-07T08:58:02;4.70;;;4.10;;
13208;SDS011;6669;42.678;23.332;2023-05-07T09:00:33;5.90;;;4.13;;
13208;SDS011;6669;42.678;23.332;2023-05-07T09:03:02;5.63;;;4.18;;
13208;SDS011;6669;42.678;23.332;2023-05-07T09:05:30;5.70;;;4.18;;
13208;SDS011;6669;42.678;23.332;2023-05-07T09:08:00;3.95;;;3.65;;
13208;SDS011;6669;42.678;23.332;2023-05-07T09:10:31;7.57;;;4.22;;
13208;SDS011;6669;42.678;23.332;2023-05-07T09:13:02;4.70;;;4.20;;
13208;SDS011;6669;42.678;23.332;2023-05-07T09:15:31;4.93;;;4.13;;
13208;SDS011;6669;42.678;23.332;2023-05-07T09:17:59;4.07;;;3.67;;
13208;SDS011;6669;42.678;23.332;2023-05-07T09:20:30;4.95;;;4.45;;
13208;SDS011;6669;42.678;23.332;2023-05-07T09:22:59;5.32;;;4.20;;
13208;SDS011;6669;42.678;23.332;2023-05-07T09:25:27;4.53;;;3.90;;
13208;SDS011;6669;42.678;23.332;2023-05-07T09:27:56;6.47;;;3.90;;
13208;SDS011;6669;42.678;23.332;2023-05-07T09:30:27;4.43;;;3.92;;
13208;SDS011;6669;42.678;23.332;2023-05-07T09:32:55;5.88;;;3.58;;
13208;SDS011;6669;42.678;23.332;2023-05-07T09:35:23;4.47;;;3.47;;
13208;SDS011;6669;42.678;23.332;2023-05-07T09:37:53;5.25;;;3.70;;
13208;SDS011;6669;42.678;23.332;2023-05-07T09:40:25;3.75;;;3.42;;
13208;SDS011;6669;42.678;23.332;2023-05-07T09:42:54;4.18;;;3.78;;
13208;SDS011;6669;42.678;23.332;2023-05-07T09:45:22;4.00;;;3.58;;
13208;SDS011;6669;42.678;23.332;2023-05-07T09:47:53;7.28;;;3.70;;
13208;SDS011;6669;42.678;23.332;2023-05-07T09:50:26;3.75;;;3.38;;
13208;SDS011;6669;42.678;23.332;2023-05-07T09:52:55;5.35;;;4.85;;
13208;SDS011;6669;42.678;23.332;2023-05-07T09:55:25;4.65;;;3.58;;
13208;SDS011;6669;42.678;23.332;2023-05-07T09:57:54;3.92;;;3.45;;
13208;SDS011;6669;42.678;23.332;2023-05-07T10:00:22;2.85;;;2.65;;
13208;SDS011;6669;42.678;23.332;2023-05-07T10:02:52;3.22;;;2.95;;
13208;SDS011;6669;42.678;23.332;2023-05-07T10:05:23;2.70;;;2.50;;
13208;SDS011;6669;42.678;23.332;2023-05-07T10:07:52;3.53;;;3.22;;
13208;SDS011;6669;42.678;23.332;2023-05-07T10:10:21;2.72;;;2.53;;
13208;SDS011;6669;42.678;23.332;2023-05-07T10:12:51;2.47;;;2.28;;
13208;SDS011;6669;42.678;23.332;2023-05-07T10:15:20;2.50;;;2.30;;
13208;SDS011;6669;42.678;23.332;2023-05-07T10:17:50;3.28;;;2.63;;
13208;SDS011;6669;42.678;23.332;2023-05-07T10:20:21;2.78;;;2.30;;
13208;SDS011;6669;42.678;23.332;2023-05-07T10:22:49;2.85;;;2.65;;
13208;SDS011;6669;42.678;23.332;2023-05-07T10:25:20;3.67;;;2.95;;
13208;SDS011;6669;42.678;23.332;2023-05-07T10:27:51;3.92;;;2.83;;
13208;SDS011;6669;42.678;23.332;2023-05-07T10:30:24;3.42;;;2.65;;
13208;SDS011;6669;42.678;23.332;2023-05-07T10:32:59;4.13;;;2.70;;
13208;SDS011;6669;42.678;23.332;2023-05-07T10:35:36;4.30;;;2.63;;
13208;SDS011;6669;42.678;23.332;2023-05-07T10:38:07;3.35;;;2.85;;
13208;SDS011;6669;42.678;23.332;2023-05-07T10:40:35;4.57;;;2.60;;
13208;SDS011;6669;42.678;23.332;2023-05-07T10:43:05;2.50;;;2.30;;
13208;SDS011;6669;42.678;23.332;2023-05-07T10:45:36;3.45;;;2.40;;
13208;SDS011;6669;42.678;23.332;2023-05-07T10:48:08;3.10;;;2.85;;
13208;SDS011;6669;42.678;23.332;2023-05-07T10:53:45;2.50;;;2.17;;
13208;SDS011;6669;42.678;23.332;2023-05-07T10:56:25;4.78;;;3.88;;
13208;SDS011;6669;42.678;23.332;2023-05-07T10:58:56;4.05;;;2.50;;
13208;SDS011;6669;42.678;23.332;2023-05-07T11:02:10;2.30;;;2.10;;
13208;SDS011;6669;42.678;23.332;2023-05-07T11:04:40;2.42;;;2.22;;
13208;SDS011;6669;42.678;23.332;2023-05-07T11:07:21;3.05;;;2.75;;
13208;SDS011;6669;42.678;23.332;2023-05-07T11:10:02;2.60;;;2.38;;
13208;SDS011;6669;42.678;23.332;2023-05-07T11:15:40;3.70;;;2.60;;
13208;SDS011;6669;42.678;23.332;2023-05-07T11:18:12;2.45;;;2.25;;
13208;SDS011;6669;42.678;23.332;2023-05-07T11:20:48;2.60;;;2.40;;
13208;SDS011;6669;42.678;23.332;2023-05-07T11:26:26;4.63;;;2.90;;
13208;SDS011;6669;42.678;23.332;2023-05-07T11:28:56;2.92;;;2.60;;
13208;SDS011;6669;42.678;23.332;2023-05-07T11:31:26;2.72;;;2.40;;
13208;SDS011;6669;42.678;23.332;2023-05-07T11:33:57;2.40;;;2.20;;
13208;SDS011;6669;42.678;23.332;2023-05-07T11:36:31;3.08;;;2.78;;
13208;SDS011;6669;42.678;23.332;2023-05-07T11:39:00;2.45;;;2.25;;
13208;SDS011;6669;42.678;23.332;2023-05-07T11:41:34;2.75;;;2.40;;
13208;SDS011;6669;42.678;23.332;2023-05-07T11:44:03;2.70;;;2.38;;
13208;SDS011;6669;42.678;23.332;2023-05-07T11:46:31;3.28;;;2.70;;
13208;SDS011;6669;42.678;23.332;2023-05-07T11:49:02;3.28;;;2.55;;
13208;SDS011;6669;42.678;23.332;2023-05-07T11:51:30;3.25;;;2.97;;
13208;SDS011;6669;42.678;23.332;2023-05-07T11:53:58;2.80;;;2.60;;
13208;SDS011;6669;42.678;23.332;2023-05-07T11:56:26;2.72;;;2.53;;
13208;SDS011;6669;42.678;23.332;2023-05-07T11:58:54;2.60;;;2.40;;
13208;SDS011;6669;42.678;23.332;2023-05-07T12:01:22;2.80;;;2.50;;
13208;SDS011;6669;42.678;23.332;2023-05-07T12:03:50;2.42;;;2.22;;
13208;SDS011;6669;42.678;23.332;2023-05-07T12:06:19;2.50;;;2.30;;
13208;SDS011;6669;42.678;23.332;2023-05-07T12:08:47;2.92;;;2.72;;
13208;SDS011;6669;42.678;23.332;2023-05-07T12:11:16;5.22;;;4.72;;
13208;SDS011;6669;42.678;23.332;2023-05-07T12:13:49;3.35;;;2.50;;
13208;SDS011;6669;42.678;23.332;2023-05-07T12:16:17;5.13;;;2.40;;
13208;SDS011;6669;42.678;23.332;2023-05-07T12:18:45;2.40;;;2.20;;
13208;SDS011;6669;42.678;23.332;2023-05-07T12:21:14;3.13;;;2.20;;
13208;SDS011;6669;42.678;23.332;2023-05-07T12:23:46;3.33;;;2.15;;
13208;SDS011;6669;42.678;23.332;2023-05-07T12:26:14;3.17;;;2.40;;
13208;SDS011;6669;42.678;23.332;2023-05-07T12:28:42;2.30;;;2.20;;
13208;SDS011;6669;42.678;23.332;2023-05-07T12:31:10;2.17;;;2.08;;
13208;SDS011;6669;42.678;23.332;2023-05-07T12:33:38;3.08;;;2.30;;
13208;SDS011;6669;42.678;23.332;2023-05-07T12:36:07;2.58;;;2.00;;
13208;SDS011;6669;42.678;23.332;2023-05-07T12:38:36;2.15;;;1.88;;
13208;SDS011;6669;42.678;23.332;2023-05-07T12:41:07;1.70;;;1.60;;
13208;SDS011;6669;42.678;23.332;2023-05-07T12:43:36;2.20;;;2.00;;
13208;SDS011;6669;42.678;23.332;2023-05-07T12:46:05;2.50;;;2.05;;
13208;SDS011;6669;42.678;23.332;2023-05-07T12:48:35;2.92;;;1.98;;
13208;SDS011;6669;42.678;23.332;2023-05-07T12:51:06;2.45;;;1.90;;
13208;SDS011;6669;42.678;23.332;2023-05-07T12:53:39;3.97;;;1.70;;
13208;SDS011;6669;42.678;23.332;2023-05-07T12:56:09;2.20;;;1.83;;
13208;SDS011;6669;42.678;23.332;2023-05-07T12:58:37;2.30;;;2.10;;
13208;SDS011;6669;42.678;23.332;2023-05-07T13:01:06;2.13;;;1.92;;
13208;SDS011;6669;42.678;23.332;2023-05-07T13:03:36;1.80;;;1.70;;
13208;SDS011;6669;42.678;23.332;2023-05-07T13:06:06;1.88;;;1.77;;
13208;SDS011;6669;42.678;23.332;2023-05-07T13:08:36;2.95;;;1.88;;
13208;SDS011;6669;42.678;23.332;2023-05-07T13:11:07;2.13;;;1.92;;
13208;SDS011;6669;42.678;23.332;2023-05-07T13:13:38;2.33;;;1.77;;
13208;SDS011;6669;42.678;23.332;2023-05-07T13:16:07;2.75;;;1.80;;
13208;SDS011;6669;42.678;23.332;2023-05-07T13:18:37;2.25;;;1.73;;
13208;SDS011;6669;42.678;23.332;2023-05-07T13:21:06;2.20;;;1.80;;
13208;SDS011;6669;42.678;23.332;2023-05-07T13:23:35;1.80;;;1.70;;
13208;SDS011;6669;42.678;23.332;2023-05-07T13:26:05;2.03;;;1.92;;
13208;SDS011;6669;42.678;23.332;2023-05-07T13:28:53;2.67;;;2.00;;
13208;SDS011;6669;42.678;23.332;2023-05-07T13:31:21;3.22;;;1.70;;
13208;SDS011;6669;42.678;23.332;2023-05-07T13:33:49;3.20;;;2.08;;
13208;SDS011;6669;42.678;23.332;2023-05-07T13:36:17;2.33;;;2.10;;
13208;SDS011;6669;42.678;23.332;2023-05-07T13:38:45;1.80;;;1.70;;
13208;SDS011;6669;42.678;23.332;2023-05-07T13:41:13;2.00;;;1.90;;
13208;SDS011;6669;42.678;23.332;2023-05-07T13:43:42;2.35;;;1.90;;
13208;SDS011;6669;42.678;23.332;2023-05-07T13:46:11;2.08;;;1.88;;
13208;SDS011;6669;42.678;23.332;2023-05-07T13:48:39;2.08;;;1.90;;
13208;SDS011;6669;42.678;23.332;2023-05-07T13:51:07;1.95;;;1.80;;
13208;SDS011;6669;42.678;23.332;2023-05-07T13:53:35;2.20;;;2.00;;
13208;SDS011;6669;42.678;23.332;2023-05-07T13:56:03;1.80;;;1.70;;
13208;SDS011;6669;42.678;23.332;2023-05-07T13:58:32;1.88;;;1.77;;
13208;SDS011;6669;42.678;23.332;2023-05-07T14:01:03;2.08;;;1.90;;
13208;SDS011;6669;42.678;23.332;2023-05-07T14:03:32;2.30;;;2.10;;
13208;SDS011;6669;42.678;23.332;2023-05-07T14:06:01;2.15;;;1.95;;
13208;SDS011;6669;42.678;23.332;2023-05-07T14:08:30;1.83;;;1.70;;
13208;SDS011;6669;42.678;23.332;2023-05-07T14:10:58;4.55;;;1.90;;
13208;SDS011;6669;42.678;23.332;2023-05-07T14:13:29;2.08;;;1.75;;
13208;SDS011;6669;42.678;23.332;2023-05-07T14:15:58;1.77;;;1.67;;
13208;SDS011;6669;42.678;23.332;2023-05-07T14:18:27;2.00;;;1.90;;
13208;SDS011;6669;42.678;23.332;2023-05-07T14:20:56;3.70;;;2.00;;
13208;SDS011;6669;42.678;23.332;2023-05-07T14:23:25;2.78;;;1.80;;
13208;SDS011;6669;42.678;23.332;2023-05-07T14:25:53;1.85;;;1.75;;
13208;SDS011;6669;42.678;23.332;2023-05-07T14:28:23;1.95;;;1.80;;
13208;SDS011;6669;42.678;23.332;2023-05-07T14:30:53;1.90;;;1.80;;
13208;SDS011;6669;42.678;23.332;2023-05-07T14:33:26;2.28;;;2.08;;
13208;SDS011;6669;42.678;23.332;2023-05-07T14:35:54;3.80;;;3.40;;
13208;SDS011;6669;42.678;23.332;2023-05-07T14:38:24;2.88;;;2.50;;
13208;SDS011;6669;42.678;23.332;2023-05-07T14:40:52;2.53;;;2.08;;
13208;SDS011;6669;42.678;23.332;2023-05-07T14:43:22;2.20;;;1.83;;
13208;SDS011;6669;42.678;23.332;2023-05-07T14:45:55;2.80;;;1.65;;
13208;SDS011;6669;42.678;23.332;2023-05-07T14:48:23;2.30;;;1.80;;
13208;SDS011;6669;42.678;23.332;2023-05-07T14:50:51;2.63;;;1.80;;
13208;SDS011;6669;42.678;23.332;2023-05-07T14:53:19;2.00;;;1.90;;
13208;SDS011;6669;42.678;23.332;2023-05-07T14:55:49;2.17;;;1.92;;
13208;SDS011;6669;42.678;23.332;2023-05-07T14:58:17;3.40;;;2.05;;
13208;SDS011;6669;42.678;23.332;2023-05-07T15:00:47;3.35;;;2.08;;
13208;SDS011;6669;42.678;23.332;2023-05-07T15:03:16;3.28;;;1.83;;
13208;SDS011;6669;42.678;23.332;2023-05-07T15:05:45;2.38;;;2.17;;
13208;SDS011;6669;42.678;23.332;2023-05-07T15:08:16;2.05;;;1.83;;